Time;durP1;ratioP1;P1;durP2;ratioP2;P2;SDS_P1;SDS_P2;PMS_P1;PMS_P2;Temp;Humidity;BMP_temperature;BMP_pressure;BME280_temperature;BME280_humidity;BME280_pressure;Samples;Min_cycle;Max_cycle;Signal;HPM_P1;HPM_P2
2022/10/17 00:01:11;;;;;;;8.68;3.05;;;13.90;99.90;;;;;;5083023;28;20088;-72
2022/10/17 00:03:38;;;;;;;6.18;2.97;;;13.90;99.90;;;;;;5049919;28;20048;-70
2022/10/17 00:06:06;;;;;;;6.53;3.40;;;13.80;99.90;;;;;;5050520;28;20052;-70
2022/10/17 00:08:32;;;;;;;7.10;3.20;;;13.90;99.90;;;;;;5064956;28;20592;-70
2022/10/17 00:11:06;;;;;;;5.70;3.20;;;13.80;99.90;;;;;;5062723;28;20053;-70
2022/10/17 00:13:32;;;;;;;8.40;3.20;;;13.90;99.90;;;;;;5083877;28;20044;-70
2022/10/17 00:15:58;;;;;;;6.65;3.03;;;13.90;99.90;;;;;;5061775;28;20055;-70
2022/10/17 00:18:24;;;;;;;12.02;3.53;;;13.90;99.90;;;;;;5052250;28;20045;-71
2022/10/17 00:20:50;;;;;;;8.32;3.35;;;13.90;99.90;;;;;;5050569;28;20494;-70
2022/10/17 00:23:16;;;;;;;7.45;3.72;;;13.90;99.90;;;;;;5047256;28;20057;-73
2022/10/17 00:25:42;;;;;;;8.95;3.53;;;13.90;99.90;;;;;;5049334;28;20049;-69
2022/10/17 00:28:09;;;;;;;10.65;3.92;;;13.90;99.90;;;;;;5050422;28;20134;-70
2022/10/17 00:30:34;;;;;;;8.88;4.00;;;13.90;99.90;;;;;;5049857;28;20045;-71
2022/10/17 00:33:00;;;;;;;5.50;3.13;;;13.90;99.90;;;;;;5050096;28;20547;-70
2022/10/17 00:35:26;;;;;;;8.02;3.90;;;13.90;99.90;;;;;;5082075;28;20044;-72
2022/10/17 00:37:51;;;;;;;9.65;3.85;;;13.90;99.90;;;;;;5062503;28;20051;-70
2022/10/17 00:40:17;;;;;;;11.90;4.20;;;13.90;99.90;;;;;;5058887;28;20040;-73
2022/10/17 00:42:43;;;;;;;7.15;3.72;;;13.90;99.90;;;;;;5065832;28;20106;-70
2022/10/17 00:45:24;;;;;;;10.27;3.60;;;13.90;99.90;;;;;;5070310;28;20080;-70
2022/10/17 00:48:00;;;;;;;7.93;3.53;;;13.90;99.90;;;;;;5069776;28;20092;-69
2022/10/17 00:50:27;;;;;;;7.30;3.25;;;13.90;99.90;;;;;;5069269;28;20490;-70
2022/10/17 00:52:54;;;;;;;8.63;3.63;;;13.90;99.90;;;;;;5068300;28;20397;-70
2022/10/17 00:55:28;;;;;;;7.18;4.10;;;13.90;99.90;;;;;;5066989;28;20088;-73
2022/10/17 00:57:55;;;;;;;5.20;3.55;;;13.90;99.90;;;;;;5057653;28;20059;-69
2022/10/17 01:00:21;;;;;;;6.88;3.90;;;13.90;99.90;;;;;;5068425;28;20052;-73
2022/10/17 01:02:47;;;;;;;7.65;3.55;;;13.90;99.90;;;;;;5069588;28;20052;-70
2022/10/17 01:05:14;;;;;;;6.45;3.67;;;13.90;99.90;;;;;;5069713;28;20452;-70
2022/10/17 01:07:41;;;;;;;5.88;3.28;;;13.90;99.90;;;;;;5065789;28;20202;-70
2022/10/17 01:10:09;;;;;;;6.72;3.50;;;13.90;99.90;;;;;;5069706;28;20088;-70
2022/10/17 01:12:51;;;;;;;12.50;4.50;;;13.90;99.90;;;;;;5069449;28;20127;-70
2022/10/17 01:15:32;;;;;;;8.85;3.92;;;13.80;99.90;;;;;;5069459;28;20083;-72
2022/10/17 01:18:38;;;;;;;7.00;3.53;;;13.70;99.90;;;;;;5069519;28;20106;-69
2022/10/17 01:21:22;;;;;;;7.28;3.63;;;13.70;99.90;;;;;;5068471;28;20498;-71
2022/10/17 01:24:12;;;;;;;6.60;3.83;;;13.70;99.90;;;;;;5048329;28;20045;-69
2022/10/17 01:26:47;;;;;;;10.65;3.75;;;13.70;99.90;;;;;;5049260;28;20045;-69
2022/10/17 01:29:29;;;;;;;7.07;3.70;;;13.60;99.90;;;;;;5049537;28;20048;-70
2022/10/17 01:32:07;;;;;;;11.02;4.15;;;13.60;99.90;;;;;;5049589;28;20634;-69
2022/10/17 01:34:48;;;;;;;7.72;3.80;;;13.60;99.90;;;;;;5061901;28;20055;-71
2022/10/17 01:37:26;;;;;;;7.20;4.00;;;13.50;99.90;;;;;;5101200;28;20059;-72
2022/10/17 01:40:05;;;;;;;8.43;3.80;;;13.50;99.90;;;;;;5069625;28;20076;-70
2022/10/17 01:42:40;;;;;;;7.43;3.80;;;13.50;99.90;;;;;;5069192;28;20048;-69
2022/10/17 01:45:12;;;;;;;8.80;3.97;;;13.50;99.90;;;;;;5066962;28;20051;-69
2022/10/17 01:47:40;;;;;;;14.18;4.03;;;13.50;99.90;;;;;;5068583;28;20431;-69
2022/10/17 01:50:21;;;;;;;10.57;4.32;;;13.50;99.90;;;;;;5069765;28;20409;-69
2022/10/17 01:53:01;;;;;;;9.23;4.90;;;13.50;99.90;;;;;;5068077;28;20352;-69
2022/10/17 01:55:37;;;;;;;10.13;4.18;;;13.40;99.90;;;;;;5069397;28;20123;-70
2022/10/17 01:58:08;;;;;;;6.95;3.80;;;13.40;99.90;;;;;;5069838;28;20394;-69
2022/10/17 02:00:36;;;;;;;9.23;3.88;;;13.40;99.90;;;;;;5068313;28;20048;-69
2022/10/17 02:03:05;;;;;;;9.05;4.20;;;13.40;99.90;;;;;;5053866;28;20053;-69
2022/10/17 02:05:36;;;;;;;8.90;4.72;;;13.40;99.90;;;;;;5049390;28;20053;-70
2022/10/17 02:08:02;;;;;;;9.05;4.53;;;13.40;99.90;;;;;;5047688;28;20056;-69
2022/10/17 02:10:51;;;;;;;8.00;4.10;;;13.40;99.90;;;;;;5061145;28;20129;-70
2022/10/17 02:13:20;;;;;;;8.63;4.35;;;13.40;99.90;;;;;;5070386;28;20489;-70
2022/10/17 02:16:31;;;;;;;8.25;4.18;;;13.40;99.90;;;;;;5102087;28;20072;-70
2022/10/17 02:19:10;;;;;;;7.28;4.45;;;13.40;99.90;;;;;;5069145;28;20478;-70
2022/10/17 02:22:00;;;;;;;9.65;4.30;;;13.40;99.90;;;;;;5068592;28;20443;-69
2022/10/17 02:24:47;;;;;;;9.20;4.20;;;13.40;99.90;;;;;;5062556;28;20049;-72
2022/10/17 02:27:38;;;;;;;8.32;4.13;;;13.40;99.90;;;;;;5049838;28;20052;-69
2022/10/17 02:30:09;;;;;;;8.57;4.55;;;13.40;99.90;;;;;;5048885;28;20063;-70
2022/10/17 02:32:45;;;;;;;10.38;4.38;;;13.40;99.90;;;;;;5051323;28;20049;-70
2022/10/17 02:35:14;;;;;;;7.53;4.63;;;13.40;99.90;;;;;;5053323;28;20045;-70
2022/10/17 02:37:42;;;;;;;8.05;4.38;;;13.40;99.90;;;;;;5049582;28;20776;-70
2022/10/17 02:40:11;;;;;;;9.68;5.15;;;13.40;99.90;;;;;;5062806;28;20051;-70
2022/10/17 02:42:38;;;;;;;10.77;4.45;;;13.40;99.90;;;;;;5071516;28;20084;-69
2022/10/17 02:45:04;;;;;;;9.40;4.13;;;13.40;99.90;;;;;;5071620;28;20059;-72
2022/10/17 02:47:58;;;;;;;8.38;4.72;;;13.40;99.90;;;;;;5059408;28;20051;-69
2022/10/17 02:50:36;;;;;;;9.40;4.50;;;13.30;99.90;;;;;;5073012;28;20044;-71
2022/10/17 02:53:08;;;;;;;10.25;4.45;;;13.30;99.90;;;;;;5070142;28;20492;-69
2022/10/17 02:55:42;;;;;;;10.82;4.88;;;13.40;99.90;;;;;;5055569;28;20170;-70
2022/10/17 02:58:15;;;;;;;10.65;4.95;;;13.30;99.90;;;;;;5057595;28;20049;-69
2022/10/17 03:00:42;;;;;;;11.52;5.20;;;13.30;99.90;;;;;;5072329;28;20127;-69
2022/10/17 03:03:23;;;;;;;9.55;5.25;;;13.30;99.90;;;;;;5071186;28;20063;-69
2022/10/17 03:05:49;;;;;;;10.60;5.13;;;13.30;99.90;;;;;;5072212;28;20037;-70
2022/10/17 03:08:14;;;;;;;9.15;4.82;;;13.30;99.90;;;;;;5070001;28;20517;-69
2022/10/17 03:10:40;;;;;;;10.48;5.63;;;13.40;99.90;;;;;;5071524;28;20052;-69
2022/10/17 03:13:06;;;;;;;9.18;4.65;;;13.40;99.90;;;;;;5072761;28;20131;-69
2022/10/17 03:15:31;;;;;;;11.38;5.50;;;13.40;99.90;;;;;;5070504;28;20048;-70
2022/10/17 03:17:57;;;;;;;8.27;5.25;;;13.40;99.90;;;;;;5072096;28;20067;-70
2022/10/17 03:20:23;;;;;;;8.43;4.85;;;13.40;99.90;;;;;;5071462;28;20053;-69
2022/10/17 03:22:48;;;;;;;10.23;5.30;;;13.40;99.90;;;;;;5054147;28;20824;-69
2022/10/17 03:25:14;;;;;;;12.25;4.90;;;13.40;99.90;;;;;;5052324;28;20494;-69
2022/10/17 03:27:39;;;;;;;10.05;4.68;;;13.40;99.90;;;;;;5051554;28;20532;-70
2022/10/17 03:30:06;;;;;;;12.25;5.20;;;13.40;99.90;;;;;;5056493;28;20513;-70
2022/10/17 03:32:35;;;;;;;11.82;5.28;;;13.40;99.90;;;;;;5051785;28;20045;-71
2022/10/17 03:35:00;;;;;;;13.80;5.55;;;13.40;99.90;;;;;;5051182;28;20033;-71
2022/10/17 03:37:26;;;;;;;12.23;5.50;;;13.40;99.90;;;;;;5049922;28;20049;-72
2022/10/17 03:39:52;;;;;;;8.32;4.75;;;13.30;99.90;;;;;;5051486;28;20055;-70
2022/10/17 03:42:17;;;;;;;11.90;5.63;;;13.30;99.90;;;;;;5052049;28;20052;-69
2022/10/17 03:44:43;;;;;;;12.10;5.53;;;13.30;99.90;;;;;;5056893;28;20053;-69
2022/10/17 03:47:09;;;;;;;9.98;5.88;;;13.30;99.90;;;;;;5072067;28;20044;-70
2022/10/17 03:49:34;;;;;;;8.88;4.97;;;13.30;99.90;;;;;;5070826;28;20072;-71
2022/10/17 03:52:00;;;;;;;9.07;5.80;;;13.20;99.90;;;;;;5070741;28;20044;-71
2022/10/17 03:54:26;;;;;;;18.90;5.80;;;13.20;99.90;;;;;;5068751;28;20049;-70
2022/10/17 03:56:51;;;;;;;14.73;5.95;;;13.20;99.90;;;;;;5071154;28;20047;-70
2022/10/17 03:59:17;;;;;;;9.70;5.13;;;13.20;99.90;;;;;;5071627;28;20440;-69
2022/10/17 04:01:43;;;;;;;10.52;5.85;;;13.10;99.90;;;;;;5070153;28;20055;-69
2022/10/17 04:04:09;;;;;;;11.77;5.55;;;13.10;99.90;;;;;;5071124;28;20045;-69
2022/10/17 04:06:36;;;;;;;10.90;5.05;;;13.10;99.90;;;;;;5070803;28;20044;-71
2022/10/17 04:09:02;;;;;;;11.73;6.28;;;13.10;99.90;;;;;;5068948;28;20057;-69
2022/10/17 04:11:31;;;;;;;11.18;5.82;;;13.10;99.90;;;;;;5071529;28;20114;-69
2022/10/17 04:13:58;;;;;;;13.15;6.20;;;13.00;99.90;;;;;;5071076;28;20049;-71
2022/10/17 04:16:25;;;;;;;12.13;5.75;;;13.10;99.90;;;;;;5065749;28;20102;-69
2022/10/17 04:18:56;;;;;;;10.55;5.63;;;13.10;99.90;;;;;;5070159;28;20056;-69
2022/10/17 04:21:23;;;;;;;11.90;6.18;;;13.00;99.90;;;;;;5070379;28;20053;-70
2022/10/17 04:23:56;;;;;;;10.13;5.60;;;13.00;99.90;;;;;;5068474;28;20048;-69
2022/10/17 04:26:22;;;;;;;12.07;6.28;;;13.00;99.90;;;;;;5070134;28;20063;-69
2022/10/17 04:28:48;;;;;;;;;;;13.00;99.90;;;;;;5070733;28;20048;-70
2022/10/17 04:31:14;;;;;;;12.55;5.68;;;13.00;99.90;;;;;;5071210;28;19924;-71
2022/10/17 04:33:40;;;;;;;11.70;6.22;;;13.00;99.90;;;;;;5070092;28;20054;-69
2022/10/17 04:36:11;;;;;;;12.30;6.40;;;13.00;99.90;;;;;;5066005;28;20045;-69
2022/10/17 04:38:37;;;;;;;11.77;6.05;;;13.00;99.90;;;;;;5048284;28;20090;-72
2022/10/17 04:41:05;;;;;;;10.07;6.32;;;13.00;99.90;;;;;;5070658;28;20056;-69
2022/10/17 04:43:33;;;;;;;13.55;6.90;;;13.00;99.90;;;;;;5071026;28;20110;-69
2022/10/17 04:46:03;;;;;;;14.82;7.03;;;13.00;99.90;;;;;;5070616;28;20084;-69
2022/10/17 04:48:29;;;;;;;12.90;6.57;;;12.90;99.90;;;;;;5070443;28;20370;-71
2022/10/17 04:51:00;;;;;;;15.52;7.70;;;13.00;99.90;;;;;;5069085;28;20112;-71
2022/10/17 04:53:27;;;;;;;13.63;7.75;;;13.00;99.90;;;;;;5067472;28;20079;-69
2022/10/17 04:55:52;;;;;;;14.88;7.13;;;13.00;99.90;;;;;;5069658;28;20048;-69
2022/10/17 04:58:18;;;;;;;13.07;7.53;;;13.00;99.90;;;;;;5060221;28;20041;-69
2022/10/17 05:00:44;;;;;;;18.50;8.13;;;13.00;99.90;;;;;;5069274;28;20097;-69
2022/10/17 05:03:10;;;;;;;15.48;8.23;;;12.90;99.90;;;;;;5070154;28;20074;-70
2022/10/17 05:05:40;;;;;;;18.00;8.30;;;13.00;99.90;;;;;;5070211;28;20131;-72
2022/10/17 05:08:07;;;;;;;15.18;8.45;;;13.00;99.90;;;;;;5067866;28;20048;-69
2022/10/17 05:10:41;;;;;;;14.63;7.22;;;13.00;99.90;;;;;;5070240;28;20164;-69
2022/10/17 05:13:08;;;;;;;14.45;7.72;;;13.00;99.90;;;;;;5070650;28;20052;-69
2022/10/17 05:15:35;;;;;;;17.15;7.95;;;13.00;99.90;;;;;;5069254;28;20052;-70
2022/10/17 05:18:01;;;;;;;18.35;9.40;;;13.00;99.90;;;;;;5069625;28;20053;-69
2022/10/17 05:20:27;;;;;;;17.20;8.73;;;13.00;99.90;;;;;;5070588;28;20517;-69
2022/10/17 05:22:53;;;;;;;14.57;7.15;;;13.00;99.90;;;;;;5062341;28;20048;-69
2022/10/17 05:25:19;;;;;;;14.77;8.20;;;13.00;99.90;;;;;;5069132;28;20489;-69
2022/10/17 05:27:44;;;;;;;;;;;13.10;99.90;;;;;;5068799;28;20040;-69
2022/10/17 05:30:10;;;;;;;14.15;7.00;;;13.10;99.90;;;;;;5070452;28;19924;-69
2022/10/17 05:32:36;;;;;;;16.60;8.20;;;13.10;99.90;;;;;;5069869;28;20045;-69
2022/10/17 05:35:03;;;;;;;15.10;7.57;;;13.20;99.90;;;;;;5069735;28;20150;-69
2022/10/17 05:37:29;;;;;;;15.38;8.15;;;13.20;99.90;;;;;;5067129;28;20478;-69
2022/10/17 05:39:55;;;;;;;15.90;7.97;;;13.20;99.90;;;;;;5057248;28;20044;-71
2022/10/17 05:42:21;;;;;;;14.63;8.00;;;13.30;99.90;;;;;;5052282;28;20041;-69
2022/10/17 05:44:47;;;;;;;15.02;7.55;;;13.30;99.90;;;;;;5054441;28;20111;-69
2022/10/17 05:47:12;;;;;;;16.02;7.07;;;13.30;99.90;;;;;;5049900;28;20110;-69
2022/10/17 05:49:38;;;;;;;16.00;7.47;;;13.30;99.90;;;;;;5049927;28;20088;-70
2022/10/17 05:52:05;;;;;;;15.43;7.97;;;13.30;99.90;;;;;;5049185;28;20041;-72
2022/10/17 05:54:30;;;;;;;14.50;7.05;;;13.30;99.90;;;;;;5053546;28;20052;-70
2022/10/17 05:56:56;;;;;;;16.20;7.35;;;13.40;99.90;;;;;;5069513;28;20075;-69
2022/10/17 05:59:24;;;;;;;18.42;7.60;;;13.40;99.90;;;;;;5070125;28;20052;-71
2022/10/17 06:01:51;;;;;;;16.95;8.05;;;13.40;99.90;;;;;;5069557;28;20060;-69
2022/10/17 06:04:16;;;;;;;17.38;7.68;;;13.40;99.90;;;;;;5068242;28;20051;-69
2022/10/17 06:06:42;;;;;;;15.32;8.38;;;13.40;99.90;;;;;;5071144;28;20548;-72
2022/10/17 06:09:08;;;;;;;13.70;7.60;;;13.50;99.90;;;;;;5070546;28;20048;-70
2022/10/17 06:11:34;;;;;;;14.18;7.85;;;13.50;99.90;;;;;;5072669;28;20051;-69
2022/10/17 06:14:00;;;;;;;13.10;7.22;;;13.50;99.90;;;;;;5072549;28;20051;-69
2022/10/17 06:16:25;;;;;;;15.25;8.00;;;13.50;99.90;;;;;;5073406;28;20070;-69
2022/10/17 06:18:51;;;;;;;14.57;7.00;;;13.50;99.90;;;;;;5072439;28;20037;-70
2022/10/17 06:21:25;;;;;;;16.35;7.57;;;13.60;99.90;;;;;;5072246;28;20079;-69
2022/10/17 06:23:51;;;;;;;14.00;7.53;;;13.60;99.90;;;;;;5070743;28;20573;-71
2022/10/17 06:26:17;;;;;;;16.58;7.68;;;13.60;99.90;;;;;;5072798;28;20553;-70
2022/10/17 06:28:43;;;;;;;;;;;13.60;99.90;;;;;;5057557;28;20045;-72
2022/10/17 06:31:15;;;;;;;12.55;7.20;;;13.70;99.90;;;;;;5072374;28;19969;-69
2022/10/17 06:33:40;;;;;;;14.40;7.68;;;13.70;99.90;;;;;;5105590;28;20055;-71
2022/10/17 06:36:09;;;;;;;17.20;8.15;;;13.70;99.90;;;;;;5072552;28;20036;-70
2022/10/17 06:38:35;;;;;;;14.77;7.47;;;13.80;99.90;;;;;;5071148;28;20045;-72
2022/10/17 06:41:12;;;;;;;17.02;7.28;;;13.80;99.90;;;;;;5072206;28;20481;-69
2022/10/17 06:43:38;;;;;;;15.27;7.80;;;13.90;99.90;;;;;;5072833;28;20495;-71
2022/10/17 06:46:05;;;;;;;15.60;7.63;;;13.90;99.90;;;;;;5072196;28;20056;-72
2022/10/17 06:48:31;;;;;;;17.20;7.40;;;14.00;99.90;;;;;;5071298;28;20119;-73
2022/10/17 06:51:01;;;;;;;14.43;7.68;;;14.10;99.90;;;;;;5053737;28;20136;-73
2022/10/17 06:53:28;;;;;;;15.57;6.95;;;14.20;99.90;;;;;;5070191;28;20044;-70
2022/10/17 06:55:57;;;;;;;12.82;7.47;;;14.30;99.90;;;;;;5069264;28;20052;-69
2022/10/17 06:58:22;;;;;;;14.65;6.90;;;14.40;99.90;;;;;;5060271;28;20462;-73
2022/10/17 07:00:48;;;;;;;14.38;6.78;;;14.40;99.90;;;;;;5072036;28;20123;-74
2022/10/17 07:03:14;;;;;;;11.02;6.30;;;14.50;99.90;;;;;;5071446;28;20056;-69
2022/10/17 07:05:39;;;;;;;10.95;5.90;;;14.50;99.90;;;;;;5077309;28;20087;-69
2022/10/17 07:08:05;;;;;;;10.13;6.00;;;14.70;99.90;;;;;;5067955;28;20049;-71
2022/10/17 07:10:36;;;;;;;14.27;6.40;;;14.80;99.90;;;;;;5071079;28;20117;-69
2022/10/17 07:13:03;;;;;;;11.25;5.65;;;14.90;99.90;;;;;;5056554;28;20052;-69
2022/10/17 07:15:28;;;;;;;10.60;5.75;;;15.00;99.90;;;;;;5052469;28;20057;-69
2022/10/17 07:17:54;;;;;;;12.52;5.38;;;15.20;99.90;;;;;;5064032;28;20040;-73
2022/10/17 07:20:19;;;;;;;;;;;15.30;99.90;;;;;;5054407;28;20059;-72
2022/10/17 07:22:45;;;;;;;11.57;5.38;;;15.60;99.90;;;;;;5069985;28;20406;-69
2022/10/17 07:25:11;;;;;;;12.90;5.05;;;15.80;99.90;;;;;;5059890;28;20371;-69
2022/10/17 07:27:36;;;;;;;;;;;16.00;99.90;;;;;;5104158;28;20097;-69
2022/10/17 07:30:02;;;;;;;11.55;5.40;;;16.20;99.90;;;;;;5071392;28;19967;-70
2022/10/17 07:32:28;;;;;;;14.07;6.00;;;16.40;99.90;;;;;;5062918;28;20040;-69
2022/10/17 07:34:54;;;;;;;8.98;4.40;;;16.60;99.90;;;;;;5059927;28;20468;-76
2022/10/17 07:37:19;;;;;;;;;;;16.70;99.90;;;;;;5066487;28;20052;-70
2022/10/17 07:39:45;;;;;;;8.60;4.53;;;16.80;99.90;;;;;;5070184;28;19966;-70
2022/10/17 07:42:11;;;;;;;;;;;16.90;99.90;;;;;;5056752;28;20107;-70
2022/10/17 07:44:36;;;;;;;9.88;4.82;;;17.00;99.90;;;;;;5071710;28;19920;-70
2022/10/17 07:47:02;;;;;;;;;;;17.10;99.90;;;;;;5066885;28;20080;-68
2022/10/17 07:49:28;;;;;;;8.27;3.95;;;17.20;99.90;;;;;;5062269;28;19925;-74
2022/10/17 07:51:53;;;;;;;10.55;4.65;;;17.30;99.90;;;;;;5057371;28;20059;-77
2022/10/17 07:54:19;;;;;;;;;;;17.30;99.90;;;;;;5068110;28;20048;-75
2022/10/17 07:56:49;;;;;;;9.55;4.68;;;17.40;99.90;;;;;;5070989;28;19925;-74
2022/10/17 07:59:16;;;;;;;8.82;4.20;;;17.40;99.90;;;;;;5070477;28;20037;-72
2022/10/17 08:01:42;;;;;;;11.85;4.68;;;17.40;99.90;;;;;;5053869;28;20419;-71
2022/10/17 08:04:07;;;;;;;7.05;4.10;;;17.40;99.90;;;;;;5052094;28;20142;-70
2022/10/17 08:06:33;;;;;;;10.75;4.75;;;17.40;99.90;;;;;;5052396;28;20500;-72
2022/10/17 08:09:00;;;;;;;;;;;17.30;99.90;;;;;;5060378;28;20604;-70
2022/10/17 08:11:26;;;;;;;8.05;4.38;;;17.30;99.90;;;;;;5051330;28;19928;-72
2022/10/17 08:13:51;;;;;;;;;;;17.30;99.90;;;;;;5051399;28;20045;-75
2022/10/17 08:16:17;;;;;;;8.75;4.60;;;17.30;99.90;;;;;;5050435;28;19924;-72
2022/10/17 08:18:43;;;;;;;14.15;4.70;;;17.30;99.90;;;;;;5050640;28;20049;-71
2022/10/17 08:21:10;;;;;;;;;;;17.30;99.90;;;;;;5064367;28;20470;-70
2022/10/17 08:23:36;;;;;;;7.18;3.95;;;17.30;99.90;;;;;;5048882;28;19929;-74
2022/10/17 08:26:04;;;;;;;10.85;4.53;;;17.30;99.90;;;;;;5060733;28;20498;-70
2022/10/17 08:28:29;;;;;;;9.88;5.00;;;17.40;99.90;;;;;;5065920;28;20266;-71
2022/10/17 08:31:07;;;;;;;7.60;4.00;;;17.40;99.90;;;;;;5050092;28;20041;-75
2022/10/17 08:33:33;;;;;;;10.68;4.50;;;17.40;99.90;;;;;;5050252;28;20041;-70
2022/10/17 08:36:00;;;;;;;8.18;4.57;;;17.40;99.90;;;;;;5062076;28;20043;-76
2022/10/17 08:38:28;;;;;;;7.97;4.03;;;17.40;99.90;;;;;;5059860;28;20055;-71
2022/10/17 08:40:59;;;;;;;7.95;4.45;;;17.40;99.90;;;;;;5064413;28;20087;-70
2022/10/17 08:43:51;;;;;;;7.30;4.05;;;17.40;99.90;;;;;;5060534;28;20511;-72
2022/10/17 08:46:18;;;;;;;9.68;4.10;;;17.40;99.90;;;;;;5066464;28;20040;-70
2022/10/17 08:48:46;;;;;;;9.15;4.47;;;17.40;99.90;;;;;;5069881;28;20449;-72
2022/10/17 08:51:19;;;;;;;9.00;4.32;;;17.40;99.90;;;;;;5069700;28;20084;-70
2022/10/17 08:53:59;;;;;;;9.07;4.30;;;17.50;99.90;;;;;;5061420;28;20044;-71
2022/10/17 08:56:41;;;;;;;12.57;4.75;;;17.50;99.90;;;;;;5068695;28;20105;-70
2022/10/17 08:59:12;;;;;;;11.52;4.60;;;17.50;99.90;;;;;;5069009;28;20055;-69
2022/10/17 09:01:49;;;;;;;10.40;4.22;;;17.50;99.90;;;;;;5069636;28;20040;-70
2022/10/17 09:04:47;;;;;;;9.18;4.50;;;17.50;99.90;;;;;;5065266;28;20044;-75
2022/10/17 09:07:30;;;;;;;8.45;4.22;;;17.60;99.90;;;;;;5061517;28;20060;-74
2022/10/17 09:09:59;;;;;;;10.43;4.25;;;17.60;99.90;;;;;;5066980;28;20044;-70
2022/10/17 09:12:48;;;;;;;8.73;4.25;;;17.60;99.90;;;;;;5066602;28;20040;-70
2022/10/17 09:15:20;;;;;;;7.20;3.97;;;17.60;99.90;;;;;;5064598;28;20048;-70
2022/10/17 09:18:10;;;;;;;11.25;4.15;;;17.70;99.90;;;;;;5097578;28;20149;-72
2022/10/17 09:20:42;;;;;;;12.55;5.35;;;17.60;99.90;;;;;;5068233;28;20044;-73
2022/10/17 09:23:17;;;;;;;7.65;4.70;;;17.60;99.90;;;;;;5064433;28;20131;-70
2022/10/17 09:25:49;;;;;;;10.05;5.45;;;17.60;99.90;;;;;;5066503;28;20052;-70
2022/10/17 09:28:26;;;;;;;11.43;4.70;;;17.60;99.90;;;;;;5065902;28;20048;-74
2022/10/17 09:31:23;;;;;;;9.95;4.70;;;17.70;99.90;;;;;;5068457;28;20040;-71
2022/10/17 09:33:51;;;;;;;8.20;4.63;;;17.70;99.90;;;;;;5045832;28;20160;-70
2022/10/17 09:36:20;;;;;;;9.52;4.47;;;17.80;99.90;;;;;;5063114;28;20680;-72
2022/10/17 09:39:01;;;;;;;9.50;4.47;;;17.80;99.90;;;;;;5066954;28;20047;-71
2022/10/17 09:41:32;;;;;;;9.65;4.55;;;17.90;99.90;;;;;;5070264;28;20052;-69
2022/10/17 09:44:12;;;;;;;8.85;4.40;;;17.90;99.90;;;;;;5066617;28;20044;-70
2022/10/17 09:46:38;;;;;;;13.10;4.50;;;17.90;99.90;;;;;;5073460;28;20119;-70
2022/10/17 09:49:07;;;;;;;;;;;17.90;99.90;;;;;;5070765;28;20144;-75
2022/10/17 09:51:32;;;;;;;6.60;3.78;;;17.90;99.90;;;;;;5070473;28;19927;-71
2022/10/17 09:54:02;;;;;;;;;;;17.90;99.90;;;;;;5061654;28;20124;-71
2022/10/17 09:56:28;;;;;;;8.20;4.60;;;17.90;99.90;;;;;;5069510;28;19999;-71
2022/10/17 09:58:56;;;;;;;;;;;17.90;99.90;;;;;;5071881;28;20116;-71
2022/10/17 10:01:27;;;;;;;8.02;4.50;;;17.80;99.90;;;;;;5072413;28;19924;-73
2022/10/17 10:04:11;;;;;;;9.25;4.50;;;17.80;99.90;;;;;;5066435;28;20049;-70
2022/10/17 10:06:39;;;;;;;10.77;5.40;;;17.70;99.90;;;;;;5052506;28;20059;-72
2022/10/17 10:09:06;;;;;;;10.13;5.07;;;17.60;99.90;;;;;;5065446;28;20049;-73
2022/10/17 10:11:54;;;;;;;12.63;5.35;;;17.50;99.90;;;;;;5064235;28;20084;-73
2022/10/17 10:14:32;;;;;;;11.45;5.07;;;17.30;99.90;;;;;;5052922;28;20494;-73
2022/10/17 10:16:59;;;;;;;11.35;5.68;;;17.20;99.90;;;;;;5053736;28;20120;-73
2022/10/17 10:19:37;;;;;;;15.30;5.93;;;17.10;99.90;;;;;;5067162;28;20040;-73
2022/10/17 10:22:17;;;;;;;12.15;5.55;;;17.00;99.90;;;;;;5072895;28;20045;-71
2022/10/17 10:24:42;;;;;;;15.43;6.68;;;16.90;99.90;;;;;;5072315;28;20084;-71
2022/10/17 10:27:16;;;;;;;10.95;5.63;;;16.90;99.90;;;;;;5071682;28;20091;-71
2022/10/17 10:29:49;;;;;;;11.90;6.13;;;16.80;99.90;;;;;;5055355;28;20051;-71
2022/10/17 10:32:45;;;;;;;14.45;6.22;;;16.80;99.90;;;;;;5090145;28;20044;-72
2022/10/17 10:35:25;;;;;;;14.43;6.43;;;16.70;99.90;;;;;;5056854;28;20540;-73
2022/10/17 10:37:56;;;;;;;14.15;6.43;;;16.70;99.90;;;;;;5068191;28;20297;-72
2022/10/17 10:40:44;;;;;;;10.98;5.85;;;16.60;99.90;;;;;;5058549;28;20099;-73
2022/10/17 10:43:40;;;;;;;14.50;6.72;;;16.60;99.90;;;;;;5064843;28;20061;-75
2022/10/17 10:46:27;;;;;;;13.82;6.25;;;16.60;99.90;;;;;;5070638;28;20052;-75
2022/10/17 10:49:00;;;;;;;11.60;6.05;;;16.50;99.90;;;;;;5054680;28;20041;-72
2022/10/17 10:51:44;;;;;;;15.73;6.20;;;16.50;99.90;;;;;;5051480;28;20053;-73
2022/10/17 10:54:09;;;;;;;16.27;6.90;;;16.50;99.90;;;;;;5061774;28;20059;-74
2022/10/17 10:56:42;;;;;;;12.40;6.35;;;16.40;99.90;;;;;;5066097;28;20050;-71
2022/10/17 10:59:08;;;;;;;14.10;6.15;;;16.40;99.90;;;;;;5070462;28;20759;-75
2022/10/17 11:01:59;;;;;;;15.50;5.97;;;16.40;99.90;;;;;;5070407;28;20054;-73
2022/10/17 11:04:30;;;;;;;12.20;6.28;;;16.40;99.90;;;;;;5050224;28;20056;-73
2022/10/17 11:07:27;;;;;;;13.32;6.03;;;16.40;99.90;;;;;;5064527;28;20047;-75
2022/10/17 11:10:08;;;;;;;14.27;6.90;;;16.40;99.90;;;;;;5070162;28;20146;-72
2022/10/17 11:12:38;;;;;;;17.38;7.50;;;16.40;99.90;;;;;;5068789;28;20044;-74
2022/10/17 11:15:22;;;;;;;16.50;6.85;;;16.40;99.90;;;;;;5071960;28;20052;-73
2022/10/17 11:18:11;;;;;;;15.80;6.47;;;16.40;99.90;;;;;;5058717;28;20407;-74
2022/10/17 11:20:58;;;;;;;17.23;7.05;;;16.40;99.90;;;;;;5070548;28;20094;-74
2022/10/17 11:23:43;;;;;;;15.63;7.18;;;16.40;99.90;;;;;;5068621;28;20615;-73
2022/10/17 11:26:18;;;;;;;16.38;7.47;;;16.40;99.90;;;;;;5069430;28;20056;-74
2022/10/17 11:28:44;;;;;;;19.52;7.32;;;16.50;99.90;;;;;;5064543;28;20052;-73
2022/10/17 11:31:12;;;;;;;16.73;7.20;;;16.50;99.90;;;;;;5054861;28;20044;-76
2022/10/17 11:33:53;;;;;;;17.02;7.78;;;16.50;99.90;;;;;;5069751;28;20083;-73
2022/10/17 11:36:24;;;;;;;14.05;6.88;;;16.50;99.90;;;;;;5070607;28;20044;-75
2022/10/17 11:38:58;;;;;;;14.50;7.60;;;16.60;99.90;;;;;;5068866;28;20094;-78
2022/10/17 11:41:50;;;;;;;13.57;7.05;;;16.60;99.90;;;;;;5069684;28;20830;-74
2022/10/17 11:44:28;;;;;;;13.68;7.22;;;16.60;99.90;;;;;;5058143;28;20052;-75
2022/10/17 11:47:00;;;;;;;16.88;7.10;;;16.60;99.90;;;;;;5053562;28;20049;-73
2022/10/17 11:49:42;;;;;;;15.75;7.03;;;16.60;99.90;;;;;;5049677;28;20114;-73
2022/10/17 11:52:20;;;;;;;12.02;6.75;;;16.60;99.90;;;;;;5054838;28;20047;-74
2022/10/17 11:54:52;;;;;;;11.70;5.20;;;16.60;99.90;;;;;;5102420;28;20577;-72
2022/10/17 11:57:51;;;;;;;11.68;5.43;;;16.60;99.90;;;;;;5069378;28;20063;-76
2022/10/17 12:01:04;;;;;;;10.25;4.97;;;16.60;99.90;;;;;;5067163;28;20048;-76
2022/10/17 12:04:10;;;;;;;8.40;4.50;;;16.60;99.90;;;;;;5053848;28;20052;-73
2022/10/17 12:07:04;;;;;;;10.10;4.82;;;16.60;99.90;;;;;;5052915;28;20037;-73
2022/10/17 12:09:33;;;;;;;12.30;4.63;;;16.60;99.90;;;;;;5062661;28;20048;-72
2022/10/17 12:12:01;;;;;;;9.77;4.60;;;16.60;99.90;;;;;;5069180;28;20066;-72
2022/10/17 12:14:34;;;;;;;8.18;4.72;;;16.60;99.90;;;;;;5069366;28;20048;-72
2022/10/17 12:17:02;;;;;;;9.20;5.25;;;16.60;99.90;;;;;;5061902;28;20060;-77
2022/10/17 12:19:33;;;;;;;7.97;4.43;;;16.60;99.90;;;;;;5063328;28;20045;-75
2022/10/17 12:22:01;;;;;;;8.20;4.40;;;16.60;99.90;;;;;;5051240;28;20084;-74
2022/10/17 12:24:34;;;;;;;9.02;4.60;;;16.60;99.90;;;;;;5061670;28;20098;-72
2022/10/17 12:27:46;;;;;;;8.68;3.78;;;16.60;99.90;;;;;;5063166;28;20052;-72
2022/10/17 12:30:15;;;;;;;7.25;4.07;;;16.60;99.90;;;;;;5008535;28;20121;-72
2022/10/17 12:33:02;;;;;;;8.50;4.20;;;16.60;99.90;;;;;;5062778;28;20088;-72
2022/10/17 12:35:30;;;;;;;6.78;3.53;;;16.70;99.90;;;;;;5050329;28;20048;-73
2022/10/17 12:38:01;;;;;;;7.97;3.90;;;16.70;99.90;;;;;;5048455;28;20052;-76
2022/10/17 12:40:36;;;;;;;9.10;4.10;;;16.70;99.90;;;;;;5050143;28;20048;-72
2022/10/17 12:43:27;;;;;;;7.40;4.03;;;16.80;99.90;;;;;;5096821;28;20053;-74
2022/10/17 12:45:57;;;;;;;8.05;3.50;;;16.80;99.90;;;;;;5050850;28;20049;-72
2022/10/17 12:48:35;;;;;;;6.32;3.75;;;16.80;99.90;;;;;;5049521;28;20037;-72
2022/10/17 12:51:16;;;;;;;7.47;3.63;;;16.90;99.90;;;;;;5050836;28;20053;-75
2022/10/17 12:54:00;;;;;;;7.10;3.65;;;16.90;99.90;;;;;;5047155;28;20059;-72
2022/10/17 12:56:52;;;;;;;7.88;3.83;;;17.00;99.90;;;;;;5069073;28;20128;-75
2022/10/17 12:59:24;;;;;;;8.05;4.55;;;17.00;99.90;;;;;;5058284;28;20106;-75
2022/10/17 13:01:58;;;;;;;8.52;4.07;;;17.00;99.90;;;;;;5067208;28;20265;-72
2022/10/17 13:04:25;;;;;;;9.98;4.03;;;17.00;99.90;;;;;;5069601;28;20075;-73
2022/10/17 13:06:55;;;;;;;6.95;4.10;;;17.00;99.90;;;;;;5060792;28;20521;-73
2022/10/17 13:09:36;;;;;;;8.13;4.00;;;17.00;99.90;;;;;;5095242;28;20065;-75